• Join FlightAware (Why Join?)
  • Login
  • US Flag 
07:46AM EDT


 

Airport Tracker/Info


-or-


 

Live Flight TrackerFlight Track Log ✈ N518AM ✈ 23-Apr-2013 ✈ KSRQ - KTLH

Flight Track Log - Related Links

Times and Time Zones

All times are in EDT time to prevent confusion due to time zone crossing. See the N518AM flight status page for this flight to view local times or setup timezone preferences in your user account.

Time Position Orientation Groundspeed Altitude Reporting Facility
EDT Latitude Longitude Course Direction KTS MPH feet Rate Location/Type
06:19PM 27.3833 -82.5333 90° East 117 135 900  Level Tampa TRACON
06:20PM 27.3833 -82.5000 90° East 112 129 1,600 660 Climbing Tampa TRACON
06:21PM 27.3833 -82.4667 90° East 118 136 2,300 720 Climbing Tampa TRACON
06:22PM 27.4167 -82.4500 24° Northeast 133 153 3,100 600 Climbing Tampa TRACON
06:23PM 27.4333 -82.5000 291° West 155 178 3,600 480 Climbing Tampa TRACON
06:24PM 27.6420 -82.5965 353° North  Level FlightAware Approximate
06:24PM 27.4667 -82.5333 318° Northwest 160 184 4,100  Level Tampa TRACON
06:25PM 27.4833 -82.5667 299° West 161 185 4,600 360 Climbing Tampa TRACON
06:26PM 27.5167 -82.6000 318° Northwest 164 189 4,900 180 Climbing Tampa TRACON
06:27PM 27.5500 -82.6500 307° West 174 200 5,000  Climbing Tampa TRACON
06:28PM 27.5833 -82.6833 318° Northwest 178 205 5,000  Level Tampa TRACON
06:29PM 27.6167 -82.7167 318° Northwest 172 198 5,000  Level Tampa TRACON
06:30PM 27.6500 -82.7667 307° West 174 200 5,000 60 Level Tampa TRACON
06:31PM 27.6833 -82.8000 318° Northwest 173 199 5,200 300 Climbing Tampa TRACON
06:32PM 27.7167 -82.8333 318° Northwest 162 186 5,600 420 Climbing Tampa TRACON
06:33PM 27.7500 -82.8667 318° Northwest 163 188 6,100 480 Climbing Tampa TRACON
06:34PM 27.8000 -82.8833 344° North 162 186 6,600 480 Climbing Tampa TRACON
06:35PM 27.8500 -82.8833 360° North 164 189 7,100 480 Climbing Tampa TRACON
06:36PM 27.8833 -82.8833 360° North 160 184 7,600 420 Climbing Tampa TRACON
06:37PM 27.9333 -82.8833 360° North 162 186 8,000 180 Climbing Tampa TRACON
06:38PM 27.9833 -82.9000 344° North 171 197 8,000  Level Tampa TRACON
06:39PM 28.0333 -82.9000 360° North 180 207 8,000  Level Tampa TRACON
06:40PM 28.0833 -82.9000 360° North 182 209 8,000  Level Tampa TRACON
06:42PM 28.1875 -82.9136 353° North 168 193 8,100  Climbing Jacksonville Center
06:43PM 28.2333 -82.9186 355° North 163 188 8,100 -60 Level Jacksonville Center
06:44PM 28.2814 -82.9233 355° North 163 188 8,000 -60 Descending Jacksonville Center
06:45PM 28.3272 -82.9281 355° North 163 188 8,000  Level Jacksonville Center
06:46PM 28.3775 -82.9303 358° North 163 188 8,000  Level Jacksonville Center
06:47PM 28.4253 -82.9375 352° North 163 188 8,000  Level Jacksonville Center
06:48PM 28.4714 -82.9422 355° North 163 188 8,000  Level Jacksonville Center
06:49PM 28.5192 -82.9469 355° North 163 188 8,000  Level Jacksonville Center
06:50PM 28.5589 -82.9753 328° Northwest 157 181 8,100  Climbing Jacksonville Center
06:51PM 28.5944 -83.0083 321° Northwest 157 181 8,100 -60 Level Jacksonville Center
06:52PM 28.6339 -83.0369 328° Northwest 168 193 8,000 -60 Descending Jacksonville Center
06:53PM 28.6736 -83.0653 328° Northwest 168 193 8,000  Level Jacksonville Center
06:54PM 28.7153 -83.0939 329° Northwest 174 200 8,000  Level Jacksonville Center
06:55PM 28.7528 -83.1247 324° Northwest 174 200 8,000  Level Jacksonville Center
06:56PM 28.7944 -83.1556 327° Northwest 174 200 8,000  Level Jacksonville Center
06:57PM 28.8342 -83.1864 326° Northwest 174 200 8,000  Level Jacksonville Center
06:58PM 28.8736 -83.2150 328° Northwest 174 200 8,000  Level Jacksonville Center
06:59PM 28.9133 -83.2436 328° Northwest 174 200 8,000  Level Jacksonville Center
07:00PM 28.9528 -83.2722 328° Northwest 174 200 8,000  Level Jacksonville Center
07:01PM 28.9944 -83.3008 329° Northwest 174 200 8,000  Level Jacksonville Center
07:02PM 29.0319 -83.3319 324° Northwest 174 200 8,000  Level Jacksonville Center
07:03PM 29.0736 -83.3606 329° Northwest 174 200 8,000  Level Jacksonville Center
07:04PM 29.1153 -83.3917 327° Northwest 174 200 8,000  Level Jacksonville Center
07:05PM 29.1528 -83.4181 328° Northwest 174 200 8,000  Level Jacksonville Center
07:06PM 29.1922 -83.4492 325° Northwest 174 200 8,000  Level Jacksonville Center
07:07PM 29.2317 -83.4781 327° Northwest 174 200 8,000  Level Jacksonville Center
07:08PM 29.2714 -83.5067 328° Northwest 174 200 8,000  Level Jacksonville Center
07:09PM 29.3108 -83.5356 327° Northwest 174 200 8,000  Level Jacksonville Center
07:10PM 29.3503 -83.5644 327° Northwest 174 200 8,100  Climbing Jacksonville Center
07:11PM 29.3897 -83.5956 326° Northwest 174 200 8,000 -60 Descending Jacksonville Center
07:12PM 29.4294 -83.6244 328° Northwest 174 200 8,000  Level Jacksonville Center
07:13PM 29.4689 -83.6536 327° Northwest 174 200 8,000  Level Jacksonville Center
07:14PM 29.5083 -83.6825 327° Northwest 174 200 8,000  Level Jacksonville Center
07:15PM 29.5478 -83.7114 327° Northwest 174 200 8,000  Level Jacksonville Center
07:16PM 29.5853 -83.7403 326° Northwest 174 200 8,000  Level Jacksonville Center
07:17PM 29.6247 -83.7717 325° Northwest 174 200 8,100  Climbing Jacksonville Center
07:18PM 29.6642 -83.7983 330° Northwest 174 200 8,000 -60 Descending Jacksonville Center
07:19PM 29.7056 -83.8300 326° Northwest 174 200 8,000  Level Jacksonville Center
07:20PM 29.7408 -83.8567 327° Northwest 174 200 8,000 -180 Level Jacksonville Center
07:21PM 29.7825 -83.8906 325° Northwest 174 200 7,700 -300 Descending Jacksonville Center
07:22PM 29.8239 -83.9197 329° Northwest 174 200 7,500 -300 Descending Jacksonville Center
07:23PM 29.8656 -83.9511 327° Northwest 174 200 7,200 -300 Descending Jacksonville Center
07:24PM 29.9089 -83.9828 328° Northwest 174 200 6,900 -300 Descending Jacksonville Center
07:25PM 29.9483 -84.0169 323° Northwest 174 200 6,600 -300 Descending Jacksonville Center
07:26PM 29.9900 -84.0461 329° Northwest 174 200 6,300 -360 Descending Jacksonville Center
07:27PM 30.0333 -84.0756 330° Northwest 174 200 5,900 -420 Descending Jacksonville Center
07:29PM 30.0921 -84.1229 328° Northwest  Level FlightAware Approximate
07:36PM 30.3435 -84.3201 327° Northwest  Level FlightAware Approximate
07:37PM 30.3800 -84.3475 327° Northwest  Level FlightAware Approximate
07:38PM 30.3833 -84.3500 327° Northwest  Level FlightAware Approximate
07:39PM 30.3967 -84.3509 327° Northwest  Level Estimated
07:40PM 30.3967 -84.3509 327° Northwest  Level Estimated
07:41PM 30.3967 -84.3509 327° Northwest  Level Estimated
07:42PM 30.3967 -84.3509 327° Northwest  Level Estimated
07:43PM 30.3967 -84.3509 327° Northwest  Level Estimated
07:44PM 30.3967 -84.3509 327° Northwest  Level Estimated